Impacts METAR Board
IDs:

KBOS - Boston/Logan Intl, MA, US

Updated at: 1300 UTC 23 Jun 2018
Potential Impact None Slight Moderate High
Time 23/01Z 23/02Z 23/03Z 23/04Z 23/05Z 23/06Z 23/07Z 23/08Z 23/09Z 23/10Z 23/11Z 23/12Z 23/13Z
Temp67 65 62 62 61 62 61 61 62 63 63 63 64
Dewpt45 45 50 51 51 50 51 51 48 53 56 56 55
Altim30.06 30.07 30.07 30.07 30.06 30.06 30.04 30.03 30.02 30.01 30.01 30.00 29.99
VIS10 10 10 10 10 10 10 10 10 10 10 10 10
CIG210 210 210 210 210 210 210 210 210 210 100 100 90
CoverOVCBKNBKNBKNBKNBKNBKNBKNBKNBKNBKNOVCOVC
FltCatVFRVFRVFRVFRVFRVFRVFRVFRVFRVFRVFRVFRVFR
WX--------------------------
WDir1801901401601009080705060607060
WSpd10 7 4 3 3 4 4 3 5 7 6 10 7
WGst-- -- -- -- -- -- -- -- -- -- -- -- --
Raw hourly METARs
KBOS 230054Z 18010KT 10SM SCT140 BKN210 OVC270 19/07 A3006 RMK AO2 SLP178 T01940072
KBOS 230154Z 19007KT 10SM SCT140 BKN210 BKN270 18/07 A3007 RMK AO2 SLP183 T01830072
KBOS 230254Z 14004KT 10SM SCT140 BKN210 17/10 A3007 RMK AO2 SLP183 T01670100 51009
KBOS 230354Z 16003KT 10SM SCT140 BKN210 17/11 A3007 RMK AO2 SLP183 T01670106
KBOS 230454Z 10003KT 10SM BKN210 16/11 A3006 RMK AO2 SLP179 T01610106 402110156
KBOS 230554Z 09004KT 10SM BKN210 17/10 A3006 RMK AO2 SLP177 T01670100 10200 20161 58006
KBOS 230654Z 08004KT 10SM BKN210 16/11 A3004 RMK AO2 SLP171 T01610106
KBOS 230754Z 07003KT 10SM BKN210 16/11 A3003 RMK AO2 SLP169 T01610106
KBOS 230854Z COR 05005KT 10SM BKN210 17/09 A3002 RMK AO2 SLP163 T01670089 57014
KBOS 230954Z 06007KT 10SM BKN210 17/12 A3001 RMK AO2 SLP161 T01720117
KBOS 231054Z 06006KT 10SM FEW070 BKN100 BKN220 17/13 A3001 RMK AO2 SLP163 T01720133
KBOS 231154Z 07010KT 10SM FEW070 BKN100 OVC180 17/13 A3000 RMK AO2 RAB19E41 SLP157 P0000 60000 T01720133 10178 20161 58006
KBOS 231254Z 06007KT 10SM FEW060 BKN090 OVC180 18/13 A2999 RMK AO2 SLP155 T01780128



Page loaded:  13:42 UTC  |   06:42 AM Pacific  |   07:42 AM Mountain  |   08:42 AM Central  |   09:42 AM Eastern

 

ADVISORIES

FORECASTS

FORECASTS

OBSERVATIONS

USER TOOLS

ABOUT US